createdAt,value
2019-06-08T00:02:18.603Z,74.20
2019-06-08T00:04:46.357Z,73.80
2019-06-08T00:07:14.600Z,73.90
2019-06-08T00:09:42.769Z,73.80
2019-06-08T00:12:10.487Z,74.10
2019-06-08T00:14:38.237Z,74.10
2019-06-08T00:17:07.611Z,73.90
2019-06-08T00:19:35.312Z,73.90
2019-06-08T00:22:03.040Z,74.20
2019-06-08T00:24:30.869Z,74.00
2019-06-08T00:26:58.620Z,73.90
2019-06-08T00:29:26.367Z,73.90
2019-06-08T00:31:54.099Z,73.90
2019-06-08T00:34:22.710Z,73.70
2019-06-08T00:36:50.444Z,74.00
2019-06-08T00:39:18.874Z,74.20
2019-06-08T00:41:46.724Z,74.10
2019-06-08T00:44:15.174Z,73.90
2019-06-08T00:46:43.099Z,74.00
2019-06-08T00:49:11.101Z,74.40
2019-06-08T00:51:38.843Z,74.00
2019-06-08T00:54:09.768Z,74.20
2019-06-08T00:56:37.513Z,74.10
2019-06-08T00:59:05.249Z,73.90
2019-06-08T01:01:32.973Z,74.00
2019-06-08T01:04:00.698Z,74.30
2019-06-08T01:06:29.746Z,74.20
2019-06-08T01:08:57.691Z,74.30
2019-06-08T01:11:26.899Z,74.20
2019-06-08T01:13:55.249Z,74.20
2019-06-08T01:16:22.976Z,74.30
2019-06-08T01:18:50.703Z,74.30
2019-06-08T01:21:19.423Z,74.40
2019-06-08T01:23:47.259Z,74.30
2019-06-08T01:26:14.994Z,74.10
2019-06-08T01:28:42.716Z,74.50
2019-06-08T01:31:10.452Z,74.20
2019-06-08T01:33:38.285Z,74.20
2019-06-08T01:36:07.763Z,74.50
2019-06-08T01:38:35.446Z,75.20
2019-06-08T01:41:03.463Z,74.20
2019-06-08T01:43:31.809Z,74.50
2019-06-08T01:45:59.537Z,74.20
2019-06-08T01:48:28.187Z,74.60
2019-06-08T01:50:56.085Z,74.50
2019-06-08T01:53:24.652Z,74.60
2019-06-08T01:55:52.477Z,74.40
2019-06-08T01:58:20.199Z,74.60
2019-06-08T02:00:48.010Z,74.40
2019-06-08T02:03:15.743Z,74.60
2019-06-08T02:05:43.500Z,74.30
2019-06-08T02:08:11.233Z,74.50
2019-06-08T02:10:38.980Z,74.40
2019-06-08T02:13:09.961Z,74.40
2019-06-08T02:15:39.367Z,74.80
2019-06-08T02:18:08.721Z,74.70
2019-06-08T02:20:39.464Z,74.40
2019-06-08T02:23:07.231Z,74.20
2019-06-08T02:25:35.710Z,74.30
2019-06-08T02:28:03.645Z,74.60
2019-06-08T02:30:34.194Z,74.30
2019-06-08T02:33:00.757Z,74.30
2019-06-08T02:35:28.481Z,74.40
2019-06-08T02:37:56.220Z,74.30
2019-06-08T02:40:23.946Z,74.40
2019-06-08T02:42:51.780Z,74.30
2019-06-08T02:45:19.498Z,74.20
2019-06-08T02:47:47.225Z,74.30
2019-06-08T02:50:14.958Z,74.30
2019-06-08T02:52:43.956Z,74.20
2019-06-08T02:55:11.681Z,74.10
2019-06-08T02:57:40.074Z,74.20
2019-06-08T03:00:09.606Z,74.20
2019-06-08T03:02:40.571Z,74.30
2019-06-08T03:05:08.388Z,74.20
2019-06-08T03:07:38.999Z,74.20
2019-06-08T03:10:09.188Z,74.10
2019-06-08T03:12:40.320Z,74.20
2019-06-08T03:15:09.243Z,74.30
2019-06-08T03:17:40.157Z,74.10
2019-06-08T03:20:08.007Z,74.20
2019-06-08T03:22:38.965Z,74.00
2019-06-08T03:25:07.439Z,74.10
2019-06-08T03:27:37.289Z,74.20
2019-06-08T03:30:17.239Z,74.00
2019-06-08T03:32:46.999Z,74.10
2019-06-08T03:35:11.043Z,74.20
2019-06-08T03:37:39.982Z,74.20
2019-06-08T03:40:08.427Z,74.30
2019-06-08T03:42:37.939Z,74.20
2019-06-08T03:45:09.212Z,74.20
2019-06-08T03:47:39.199Z,74.30
2019-06-08T03:50:07.974Z,73.80
2019-06-08T03:52:37.650Z,73.90
2019-06-08T03:55:05.173Z,74.10
2019-06-08T03:57:32.917Z,73.50
2019-06-08T04:00:00.657Z,73.00
2019-06-08T04:02:28.695Z,73.60
2019-06-08T04:04:56.438Z,73.50
2019-06-08T04:07:24.480Z,73.20
2019-06-08T04:09:52.222Z,73.30
2019-06-08T04:12:19.941Z,73.30
2019-06-08T04:14:47.677Z,73.20
2019-06-08T04:17:15.406Z,73.00
2019-06-08T04:20:03.080Z,73.10
2019-06-08T04:22:12.529Z,72.90
2019-06-08T04:24:40.301Z,72.50
2019-06-08T04:27:08.112Z,72.80
2019-06-08T04:29:39.467Z,72.60
2019-06-08T04:32:05.233Z,72.60
2019-06-08T04:34:33.314Z,72.60
2019-06-08T04:37:01.038Z,72.60
2019-06-08T04:39:28.792Z,72.40
2019-06-08T04:41:56.514Z,72.50
2019-06-08T04:44:24.244Z,72.60
2019-06-08T04:46:51.974Z,72.60
2019-06-08T04:49:19.700Z,72.70
2019-06-08T04:51:49.376Z,72.70
2019-06-08T04:54:17.139Z,72.80
2019-06-08T04:56:44.966Z,72.80
2019-06-08T04:59:12.699Z,72.90
2019-06-08T05:01:40.910Z,72.90
2019-06-08T05:04:08.669Z,73.00
2019-06-08T05:06:36.728Z,73.10
2019-06-08T05:09:08.608Z,73.30
2019-06-08T05:11:39.078Z,73.20
2019-06-08T05:14:08.700Z,73.30
2019-06-08T05:16:36.846Z,73.30
2019-06-08T05:19:04.569Z,73.30
2019-06-08T05:21:32.621Z,73.10
2019-06-08T05:24:00.431Z,73.00
2019-06-08T05:26:29.748Z,72.80
2019-06-08T05:28:57.926Z,72.70
2019-06-08T05:31:25.867Z,72.50
2019-06-08T05:33:53.869Z,72.60
2019-06-08T05:36:21.627Z,72.50
2019-06-08T05:38:50.085Z,72.50
2019-06-08T05:41:18.182Z,72.60
2019-06-08T05:43:47.655Z,72.40
2019-06-08T05:46:15.389Z,72.90
2019-06-08T05:48:44.024Z,72.40
2019-06-08T05:51:12.499Z,72.00
2019-06-08T05:53:41.592Z,72.30
2019-06-08T05:56:09.687Z,72.50
2019-06-08T05:58:39.883Z,72.30
2019-06-08T06:01:07.974Z,71.90
2019-06-08T06:03:36.186Z,71.10
2019-06-08T06:06:04.566Z,71.30
2019-06-08T06:08:32.336Z,70.80
2019-06-08T06:11:00.080Z,70.30
2019-06-08T06:13:27.918Z,70.40
2019-06-08T06:15:55.795Z,70.20
2019-06-08T06:18:23.588Z,70.80
2019-06-08T06:20:52.318Z,70.10
2019-06-08T06:23:21.162Z,69.90
2019-06-08T06:25:49.646Z,69.80
2019-06-08T06:28:18.186Z,68.70
2019-06-08T06:30:48.364Z,69.70
2019-06-08T06:33:17.150Z,68.80
2019-06-08T06:35:45.833Z,68.90
2019-06-08T06:38:14.625Z,68.60
2019-06-08T06:40:43.972Z,68.20
2019-06-08T06:43:12.900Z,68.20
2019-06-08T06:45:41.915Z,67.90
2019-06-08T06:48:10.751Z,67.90
2019-06-08T06:50:39.628Z,68.10
2019-06-08T06:53:10.727Z,67.70
2019-06-08T06:55:40.041Z,67.50
2019-06-08T06:58:11.023Z,68.80
2019-06-08T07:00:39.414Z,67.40
2019-06-08T07:03:10.358Z,67.90
2019-06-08T07:05:38.321Z,67.90
2019-06-08T07:08:07.871Z,67.20
2019-06-08T07:10:38.004Z,67.00
2019-06-08T07:13:06.426Z,66.70
2019-06-08T07:15:41.613Z,66.30
2019-06-08T07:18:03.983Z,66.20
2019-06-08T07:20:31.907Z,66.40
2019-06-08T07:23:01.831Z,66.10
2019-06-08T07:25:31.688Z,66.10
2019-06-08T07:28:00.376Z,66.40
2019-06-08T07:30:28.935Z,66.20
2019-06-08T07:32:57.004Z,66.30
2019-06-08T07:35:27.132Z,66.70
2019-06-08T07:38:16.052Z,66.60
2019-06-08T07:40:44.557Z,66.60
2019-06-08T07:43:14.332Z,66.30
2019-06-08T07:45:43.076Z,66.10
2019-06-08T07:48:12.159Z,66.40
2019-06-08T07:50:41.762Z,66.00
2019-06-08T07:53:12.804Z,65.50
2019-06-08T07:55:45.315Z,65.20
2019-06-08T07:58:21.027Z,65.60
2019-06-08T08:00:53.912Z,65.90
2019-06-08T08:03:26.502Z,65.80
2019-06-08T08:05:56.736Z,66.10
2019-06-08T08:08:25.238Z,65.80
2019-06-08T08:10:56.619Z,66.40
2019-06-08T08:13:33.663Z,66.20
2019-06-08T08:16:07.227Z,66.20
2019-06-08T08:18:42.052Z,66.00
2019-06-08T08:21:21.333Z,66.60
2019-06-08T08:26:17.918Z,66.70
2019-06-08T08:31:22.782Z,66.80
2019-06-08T08:33:52.535Z,67.10
2019-06-08T08:36:21.020Z,67.10
2019-06-08T08:38:53.669Z,67.00
2019-06-08T08:41:22.573Z,67.60
2019-06-08T08:43:58.420Z,67.40
2019-06-08T08:46:25.238Z,67.00
2019-06-08T08:49:05.901Z,68.40
2019-06-08T08:51:28.689Z,67.00
2019-06-08T08:54:03.042Z,66.50
2019-06-08T08:56:28.045Z,67.20
2019-06-08T08:58:59.321Z,66.50
2019-06-08T09:01:28.558Z,67.50
2019-06-08T09:04:01.151Z,67.30
2019-06-08T09:06:28.142Z,67.60
2019-06-08T09:08:59.539Z,66.80
2019-06-08T09:11:33.051Z,68.20
2019-06-08T09:14:05.272Z,66.80
2019-06-08T09:16:30.978Z,67.00
2019-06-08T09:19:02.366Z,67.70
2019-06-08T09:21:28.430Z,67.30
2019-06-08T09:23:58.799Z,67.70
2019-06-08T09:26:31.079Z,67.50
2019-06-08T09:28:56.208Z,68.10
2019-06-08T09:31:24.031Z,67.90
2019-06-08T09:33:58.208Z,67.80
2019-06-08T09:36:21.361Z,67.90
2019-06-08T09:38:49.477Z,67.90
2019-06-08T09:41:18.640Z,69.20
2019-06-08T09:43:48.713Z,68.70
2019-06-08T09:46:17.869Z,68.70
2019-06-08T09:48:45.762Z,68.80
2019-06-08T09:51:13.514Z,68.90
2019-06-08T09:53:41.789Z,69.40
2019-06-08T09:56:10.284Z,68.80
2019-06-08T09:58:39.066Z,69.40
2019-06-08T10:01:11.279Z,70.10
2019-06-08T10:03:39.388Z,69.40
2019-06-08T10:06:11.573Z,70.20
2019-06-08T10:08:38.931Z,69.20
2019-06-08T10:11:09.671Z,69.50
2019-06-08T10:13:43.136Z,70.30
2019-06-08T10:16:10.251Z,69.50
2019-06-08T10:18:38.713Z,68.90
2019-06-08T10:21:09.990Z,69.60
2019-06-08T10:23:42.118Z,69.00
2019-06-08T10:26:10.450Z,68.80
2019-06-08T10:28:39.007Z,69.40
2019-06-08T10:31:08.907Z,69.70
2019-06-08T10:33:40.598Z,69.00
2019-06-08T10:36:12.865Z,68.50
2019-06-08T10:38:41.248Z,68.60
2019-06-08T10:41:16.247Z,68.80
2019-06-08T10:43:39.006Z,69.10
2019-06-08T10:46:16.366Z,68.70
2019-06-08T10:48:38.183Z,68.60
2019-06-08T10:51:10.760Z,69.00
2019-06-08T10:53:46.518Z,69.30
2019-06-08T10:56:05.617Z,68.90
2019-06-08T10:58:34.344Z,69.60
2019-06-08T11:01:05.624Z,69.90
2019-06-08T11:03:31.673Z,69.20
2019-06-08T11:06:01.271Z,69.90
2019-06-08T11:08:29.199Z,68.80
2019-06-08T11:10:58.009Z,69.40
2019-06-08T11:13:28.326Z,69.70
2019-06-08T11:15:58.681Z,70.00
2019-06-08T11:18:28.513Z,69.70
2019-06-08T11:20:57.987Z,70.30
2019-06-08T11:23:24.925Z,69.80
2019-06-08T11:25:52.815Z,70.50
2019-06-08T11:28:20.605Z,69.80
2019-06-08T11:30:48.504Z,68.80
2019-06-08T11:33:16.394Z,69.40
2019-06-08T11:35:44.498Z,70.20
2019-06-08T11:38:12.739Z,70.60
2019-06-08T11:40:40.800Z,70.70
2019-06-08T11:43:08.664Z,70.20
2019-06-08T11:45:38.023Z,69.80
2019-06-08T11:48:08.743Z,68.50
2019-06-08T11:50:42.003Z,69.30
2019-06-08T11:53:13.497Z,68.10
2019-06-08T11:55:41.807Z,67.90
2019-06-08T11:58:12.086Z,66.10
2019-06-08T12:00:44.055Z,66.10
2019-06-08T12:03:13.046Z,66.40
2019-06-08T12:05:40.987Z,67.20
2019-06-08T12:08:08.775Z,67.70
2019-06-08T12:10:38.212Z,66.60
2019-06-08T12:13:09.242Z,66.90
2019-06-08T12:15:38.547Z,66.90
2019-06-08T12:18:10.964Z,66.80
2019-06-08T12:20:38.531Z,67.40
2019-06-08T12:23:10.024Z,67.80
2019-06-08T12:25:40.994Z,66.60
2019-06-08T12:28:09.125Z,66.90
2019-06-08T12:30:38.571Z,66.60
2019-06-08T12:33:09.807Z,67.20
2019-06-08T12:35:38.373Z,67.50
2019-06-08T12:38:09.582Z,68.60
2019-06-08T12:40:37.839Z,67.10
2019-06-08T12:43:07.715Z,66.60
2019-06-08T12:45:34.776Z,66.50
2019-06-08T12:48:02.567Z,65.90
2019-06-08T12:50:30.459Z,68.10
2019-06-08T12:52:58.493Z,67.50
2019-06-08T12:55:26.552Z,67.20
2019-06-08T12:57:54.342Z,67.10
2019-06-08T13:00:22.132Z,66.70
2019-06-08T13:02:50.862Z,66.80
2019-06-08T13:05:21.535Z,65.60
2019-06-08T13:07:48.599Z,67.30
2019-06-08T13:10:21.954Z,67.10
2019-06-08T13:12:47.973Z,65.80
2019-06-08T13:15:19.094Z,67.00
2019-06-08T13:17:47.759Z,65.90
2019-06-08T13:20:18.529Z,66.80
2019-06-08T13:22:47.996Z,65.10
2019-06-08T13:25:28.777Z,66.50
2019-06-08T13:27:44.684Z,66.40
2019-06-08T13:30:18.238Z,66.10
2019-06-08T13:32:42.641Z,65.70
2019-06-08T13:35:10.477Z,66.00
2019-06-08T13:37:39.035Z,66.10
2019-06-08T13:40:09.110Z,66.80
2019-06-08T13:42:38.754Z,66.10
2019-06-08T13:45:07.582Z,67.10
2019-06-08T13:47:38.328Z,66.70
2019-06-08T13:50:11.014Z,67.10
2019-06-08T13:52:38.876Z,67.60
2019-06-08T13:55:07.280Z,66.00
2019-06-08T13:57:35.168Z,67.80
2019-06-08T14:00:03.982Z,66.70
2019-06-08T14:02:31.871Z,67.30
2019-06-08T14:04:59.889Z,68.20
2019-06-08T14:07:34.187Z,68.40
2019-06-08T14:09:58.283Z,68.60
2019-06-08T14:12:30.648Z,66.30
2019-06-08T14:14:58.238Z,66.50
2019-06-08T14:17:27.024Z,66.80
2019-06-08T14:19:55.040Z,67.30
2019-06-08T14:22:24.286Z,68.80
2019-06-08T14:24:52.472Z,68.60
2019-06-08T14:27:21.303Z,67.40
2019-06-08T14:29:51.364Z,68.90
2019-06-08T14:32:19.586Z,68.30
2019-06-08T14:34:50.216Z,68.30
2019-06-08T14:37:17.943Z,69.30
2019-06-08T14:39:48.503Z,67.80
2019-06-08T14:42:19.791Z,68.00
2019-06-08T14:44:47.618Z,68.60
2019-06-08T14:47:15.151Z,68.00
2019-06-08T14:49:44.577Z,67.70
2019-06-08T14:52:12.366Z,66.80
2019-06-08T14:54:40.143Z,67.90
2019-06-08T14:57:10.919Z,68.60
2019-06-08T14:59:39.120Z,67.20
2019-06-08T15:02:08.561Z,68.60
2019-06-08T15:04:39.987Z,67.70
2019-06-08T15:07:09.519Z,67.40
2019-06-08T15:09:37.722Z,68.00
2019-06-08T15:12:05.573Z,67.90
2019-06-08T15:14:35.406Z,68.30
2019-06-08T15:17:02.906Z,69.20
2019-06-08T15:19:32.446Z,68.20
2019-06-08T15:22:00.125Z,67.20
2019-06-08T15:24:29.777Z,67.90
2019-06-08T15:26:58.320Z,67.30
2019-06-08T15:29:29.293Z,66.60
2019-06-08T15:31:58.047Z,67.80
2019-06-08T15:34:28.309Z,68.00
2019-06-08T15:36:57.442Z,67.90
2019-06-08T15:39:25.553Z,68.60
2019-06-08T15:41:54.016Z,68.60
2019-06-08T15:44:24.248Z,68.70
2019-06-08T15:46:51.334Z,69.20
2019-06-08T15:49:19.248Z,68.40
2019-06-08T15:51:54.167Z,67.70
2019-06-08T15:54:20.047Z,66.60
2019-06-08T15:56:51.920Z,65.00
2019-06-08T15:59:17.293Z,64.50
2019-06-08T16:01:45.088Z,63.50
2019-06-08T16:04:12.873Z,63.10
2019-06-08T16:06:40.659Z,64.30
2019-06-08T16:09:08.863Z,62.80
2019-06-08T16:11:39.936Z,63.40
2019-06-08T16:14:09.321Z,63.10
2019-06-08T16:16:37.111Z,63.80
2019-06-08T16:19:04.846Z,63.50
2019-06-08T16:21:34.292Z,63.50
2019-06-08T16:24:02.268Z,64.00
2019-06-08T16:26:30.084Z,64.30
2019-06-08T16:28:57.796Z,64.10
2019-06-08T16:31:26.886Z,64.10
2019-06-08T16:33:55.127Z,64.00
2019-06-08T16:36:22.865Z,64.40
2019-06-08T16:38:52.860Z,64.10
2019-06-08T16:41:19.991Z,64.50
2019-06-08T16:43:47.723Z,64.30
2019-06-08T16:46:15.451Z,65.00
2019-06-08T16:48:43.184Z,64.30
2019-06-08T16:51:10.928Z,64.60
2019-06-08T16:53:39.931Z,64.00
2019-06-08T16:56:11.035Z,64.40
2019-06-08T16:58:38.759Z,64.80
2019-06-08T17:01:07.529Z,64.80
2019-06-08T17:03:35.255Z,64.40
2019-06-08T17:06:03.112Z,64.70
2019-06-08T17:08:34.855Z,64.10
2019-06-08T17:11:00.399Z,64.80
2019-06-08T17:13:28.190Z,64.40
2019-06-08T17:15:56.106Z,64.90
2019-06-08T17:18:23.933Z,64.90
2019-06-08T17:20:51.826Z,64.80
2019-06-08T17:23:19.618Z,65.20
2019-06-08T17:25:47.774Z,64.80
2019-06-08T17:28:15.712Z,64.80
2019-06-08T17:30:43.925Z,65.10
2019-06-08T17:33:11.806Z,65.80
2019-06-08T17:35:39.932Z,65.30
2019-06-08T17:38:09.492Z,65.40
2019-06-08T17:40:38.370Z,65.40
2019-06-08T17:43:06.510Z,66.40
2019-06-08T17:45:34.409Z,66.20
2019-06-08T17:48:02.406Z,66.60
2019-06-08T17:50:30.309Z,68.00
2019-06-08T17:52:58.097Z,67.20
2019-06-08T17:55:25.978Z,67.00
2019-06-08T17:57:53.928Z,67.80
2019-06-08T18:00:21.748Z,67.90
2019-06-08T18:02:49.671Z,67.50
2019-06-08T18:05:18.243Z,67.40
2019-06-08T18:07:48.731Z,67.70
2019-06-08T18:10:17.785Z,68.90
2019-06-08T18:12:46.870Z,69.00
2019-06-08T18:15:14.560Z,68.30
2019-06-08T18:17:43.771Z,68.10
2019-06-08T18:20:13.096Z,68.40
2019-06-08T18:22:42.754Z,68.70
2019-06-08T18:25:10.444Z,67.50
2019-06-08T18:27:40.703Z,67.70
2019-06-08T18:30:11.715Z,68.50
2019-06-08T18:32:40.548Z,69.10
2019-06-08T18:35:08.268Z,69.00
2019-06-08T18:37:39.393Z,69.10
2019-06-08T18:40:08.579Z,68.00
2019-06-08T18:42:39.566Z,67.20
2019-06-08T18:45:07.972Z,65.60
2019-06-08T18:47:39.340Z,64.60
2019-06-08T18:50:08.908Z,63.90
2019-06-08T18:52:41.768Z,63.70
2019-06-08T18:55:10.734Z,63.30
2019-06-08T18:57:41.020Z,63.60
2019-06-08T19:00:11.745Z,63.60
2019-06-08T19:02:41.993Z,63.90
2019-06-08T19:05:08.492Z,64.00
2019-06-08T19:07:39.175Z,64.30
2019-06-08T19:10:08.902Z,64.30
2019-06-08T19:12:39.633Z,64.50
2019-06-08T19:15:11.466Z,64.70
2019-06-08T19:17:45.788Z,64.60
2019-06-08T19:20:10.764Z,64.70
2019-06-08T19:22:41.654Z,65.10
2019-06-08T19:25:10.955Z,65.20
2019-06-08T19:27:43.937Z,65.70
2019-06-08T19:30:08.071Z,66.10
2019-06-08T19:32:38.917Z,65.60
2019-06-08T19:35:07.328Z,65.70
2019-06-08T19:37:34.972Z,65.80
2019-06-08T19:40:03.374Z,66.40
2019-06-08T19:42:39.690Z,66.20
2019-06-08T19:45:05.309Z,66.20
2019-06-08T19:47:29.891Z,66.50
2019-06-08T19:49:57.916Z,67.30
2019-06-08T19:52:25.871Z,67.10
2019-06-08T19:54:54.138Z,67.60
2019-06-08T19:57:22.580Z,67.40
2019-06-08T19:59:50.373Z,67.70
2019-06-08T20:02:18.264Z,67.80
2019-06-08T20:04:46.865Z,68.00
2019-06-08T20:07:17.354Z,68.30
2019-06-08T20:09:45.229Z,68.60
2019-06-08T20:12:14.135Z,68.40
2019-06-08T20:14:42.029Z,68.60
2019-06-08T20:17:09.802Z,68.70
2019-06-08T20:19:40.604Z,69.40
2019-06-08T20:22:09.922Z,68.40
2019-06-08T20:24:42.418Z,68.40
2019-06-08T20:27:10.538Z,68.50
2019-06-08T20:29:38.424Z,68.40
2019-06-08T20:32:08.687Z,68.80
2019-06-08T20:34:38.200Z,68.60
2019-06-08T20:37:09.261Z,68.40
2019-06-08T20:39:53.675Z,68.60
2019-06-08T20:42:12.107Z,69.10
2019-06-08T20:44:41.819Z,68.70
2019-06-08T20:47:10.554Z,68.80
2019-06-08T20:49:38.962Z,68.70
2019-06-08T20:52:09.440Z,68.90
2019-06-08T20:54:41.043Z,69.10
2019-06-08T20:57:09.705Z,68.70
2019-06-08T20:59:40.044Z,69.10
2019-06-08T21:02:11.460Z,69.30
2019-06-08T21:04:39.754Z,69.20
2019-06-08T21:07:08.261Z,69.30
2019-06-08T21:09:37.057Z,69.60
2019-06-08T21:12:05.022Z,69.50
2019-06-08T21:14:32.755Z,69.80
2019-06-08T21:17:00.509Z,69.80
2019-06-08T21:19:28.352Z,69.90
2019-06-08T21:21:59.244Z,69.40
2019-06-08T21:24:28.150Z,69.90
2019-06-08T21:27:00.094Z,69.50
2019-06-08T21:29:28.811Z,69.90
2019-06-08T21:31:56.357Z,69.80
2019-06-08T21:34:24.395Z,70.00
2019-06-08T21:36:53.834Z,69.70
2019-06-08T21:39:21.740Z,69.80
2019-06-08T21:41:51.485Z,69.50
2019-06-08T21:44:19.075Z,69.90
2019-06-08T21:46:48.709Z,70.00
2019-06-08T21:49:18.228Z,69.90
2019-06-08T21:51:48.508Z,69.80
2019-06-08T21:54:17.518Z,69.60
2019-06-08T21:56:45.124Z,69.90
2019-06-08T21:59:13.327Z,69.70
2019-06-08T22:01:41.344Z,70.10
2019-06-08T22:04:09.140Z,69.90
2019-06-08T22:06:39.331Z,69.80
2019-06-08T22:09:08.863Z,69.70
2019-06-08T22:11:38.003Z,69.80
2019-06-08T22:14:08.112Z,69.70
2019-06-08T22:16:35.331Z,69.60
2019-06-08T22:19:04.749Z,69.40
2019-06-08T22:21:32.641Z,69.50
2019-06-08T22:24:00.902Z,69.40
2019-06-08T22:26:29.146Z,69.10
2019-06-08T22:28:58.362Z,69.40
2019-06-08T22:31:28.265Z,69.40
2019-06-08T22:34:02.013Z,69.20
2019-06-08T22:36:38.290Z,69.10
2019-06-08T22:39:10.460Z,69.00
2019-06-08T22:41:40.972Z,69.10
2019-06-08T22:44:17.647Z,68.80
2019-06-08T22:46:44.490Z,69.00
2019-06-08T22:49:15.248Z,69.00
2019-06-08T22:51:42.631Z,69.00
2019-06-08T22:54:10.727Z,69.00
2019-06-08T22:56:42.614Z,68.90
2019-06-08T22:59:10.504Z,69.00
2019-06-08T23:01:38.497Z,68.80
2019-06-08T23:04:09.046Z,68.60
2019-06-08T23:06:40.730Z,68.40
2019-06-08T23:09:08.896Z,68.60
2019-06-08T23:11:37.587Z,68.50
2019-06-08T23:14:12.354Z,68.30
2019-06-08T23:16:35.012Z,68.50
2019-06-08T23:19:03.268Z,68.20
2019-06-08T23:21:31.184Z,68.00
2019-06-08T23:24:01.053Z,68.10
2019-06-08T23:26:28.294Z,68.00
2019-06-08T23:28:56.112Z,67.80
2019-06-08T23:31:25.690Z,68.00
2019-06-08T23:33:53.227Z,68.00
2019-06-08T23:36:45.632Z,67.90
2019-06-08T23:38:50.326Z,68.00
2019-06-08T23:41:18.568Z,67.80
2019-06-08T23:43:48.099Z,68.00
2019-06-08T23:46:17.926Z,68.00
2019-06-08T23:48:48.139Z,67.80
2019-06-08T23:51:14.757Z,67.70
2019-06-08T23:53:42.536Z,67.70
2019-06-08T23:56:11.895Z,67.80
2019-06-08T23:58:39.972Z,67.80
